createdAt,value
2022-08-17T00:01:52.317Z,24.78
2022-08-17T00:04:23.858Z,24.74
2022-08-17T00:06:54.157Z,24.70
2022-08-17T00:09:24.763Z,24.66
2022-08-17T00:12:40.660Z,24.67
2022-08-17T00:14:50.548Z,24.64
2022-08-17T00:17:21.173Z,24.61
2022-08-17T00:19:51.362Z,24.59
2022-08-17T00:22:34.758Z,24.57
2022-08-17T00:25:09.808Z,24.54
2022-08-17T00:27:43.054Z,24.54
2022-08-17T00:30:16.009Z,24.50
2022-08-17T00:33:14.033Z,24.47
2022-08-17T00:35:41.920Z,24.42
2022-08-17T00:38:13.444Z,24.43
2022-08-17T00:40:48.438Z,24.37
2022-08-17T00:43:30.459Z,24.30
2022-08-17T00:46:01.403Z,24.24
2022-08-17T00:48:32.369Z,24.22
2022-08-17T00:51:10.627Z,24.18
2022-08-17T00:53:46.342Z,24.16
2022-08-17T00:56:23.862Z,24.17
2022-08-17T00:58:58.237Z,24.15
2022-08-17T01:01:28.856Z,24.14
2022-08-17T01:04:00.646Z,24.12
2022-08-17T01:06:33.103Z,24.08
2022-08-17T01:09:04.947Z,24.08
2022-08-17T01:11:37.252Z,24.02
2022-08-17T01:14:11.801Z,23.99
2022-08-17T01:16:42.455Z,23.93
2022-08-17T01:19:20.312Z,23.85
2022-08-17T01:22:00.238Z,23.81
2022-08-17T01:24:36.258Z,23.77
2022-08-17T01:27:10.466Z,23.74
2022-08-17T01:29:45.457Z,23.74
2022-08-17T01:32:16.300Z,23.72
2022-08-17T01:34:50.544Z,23.64
2022-08-17T01:37:24.129Z,23.59
2022-08-17T01:40:01.262Z,23.56
2022-08-17T01:42:37.807Z,23.46
2022-08-17T01:45:13.078Z,23.40
2022-08-17T01:47:43.490Z,23.34
2022-08-17T01:50:18.166Z,23.32
2022-08-17T01:52:50.746Z,23.31
2022-08-17T01:55:31.716Z,23.29
2022-08-17T01:58:02.268Z,23.23
2022-08-17T02:00:59.380Z,23.19
2022-08-17T02:03:22.805Z,23.15
2022-08-17T02:05:53.495Z,23.07
2022-08-17T02:08:37.198Z,22.99
2022-08-17T02:11:17.059Z,22.93
2022-08-17T02:13:49.609Z,22.87
2022-08-17T02:16:37.776Z,22.77
2022-08-17T02:19:13.057Z,22.72
2022-08-17T02:21:45.364Z,22.73
2022-08-17T02:24:58.306Z,22.70
2022-08-17T02:27:15.839Z,22.63
2022-08-17T02:29:45.971Z,22.59
2022-08-17T02:32:27.957Z,22.56
2022-08-17T02:34:59.522Z,22.50
2022-08-17T02:37:31.815Z,22.48
2022-08-17T02:40:02.923Z,22.41
2022-08-17T02:42:41.489Z,22.37
2022-08-17T02:45:15.520Z,22.32
2022-08-17T02:47:47.095Z,22.23
2022-08-17T02:50:20.471Z,22.21
2022-08-17T02:53:01.713Z,22.24
2022-08-17T02:55:37.598Z,22.16
2022-08-17T02:58:11.696Z,22.13
2022-08-17T03:00:48.287Z,22.14
2022-08-17T03:03:21.570Z,22.13
2022-08-17T03:05:54.156Z,22.11
2022-08-17T03:08:24.013Z,22.04
2022-08-17T03:10:54.624Z,22.00
2022-08-17T03:13:27.338Z,21.96
2022-08-17T03:15:57.504Z,21.90
2022-08-17T03:18:28.127Z,21.83
2022-08-17T03:21:00.136Z,21.77
2022-08-17T03:23:32.349Z,21.74
2022-08-17T03:26:03.354Z,21.70
2022-08-17T03:28:36.169Z,21.69
2022-08-17T03:31:07.036Z,21.71
2022-08-17T03:33:37.560Z,21.72
2022-08-17T03:36:09.731Z,21.72
2022-08-17T03:38:40.242Z,21.71
2022-08-17T03:41:11.594Z,21.71
2022-08-17T03:43:44.420Z,21.67
2022-08-17T03:46:34.637Z,21.62
2022-08-17T03:49:20.833Z,21.58
2022-08-17T03:52:03.422Z,21.48
2022-08-17T03:54:45.976Z,21.43
2022-08-17T03:57:16.553Z,21.37
2022-08-17T03:59:49.611Z,21.39
2022-08-17T04:02:30.532Z,21.34
2022-08-17T04:05:01.461Z,21.30
2022-08-17T04:07:33.790Z,21.31
2022-08-17T04:10:04.292Z,21.35
2022-08-17T04:12:48.572Z,21.38
2022-08-17T04:15:21.855Z,21.35
2022-08-17T04:17:52.069Z,21.38
2022-08-17T04:20:25.315Z,21.36
2022-08-17T04:23:05.190Z,21.39
2022-08-17T04:25:39.103Z,21.32
2022-08-17T04:28:15.708Z,21.37
2022-08-17T04:30:50.344Z,21.39
2022-08-17T04:33:24.168Z,21.41
2022-08-17T04:35:56.824Z,21.41
2022-08-17T04:38:31.978Z,21.41
2022-08-17T04:41:16.100Z,21.47
2022-08-17T04:43:48.770Z,21.50
2022-08-17T04:46:26.580Z,21.50
2022-08-17T04:48:59.727Z,21.49
2022-08-17T04:51:33.185Z,21.53
2022-08-17T04:54:06.750Z,21.57
2022-08-17T04:56:38.576Z,21.59
2022-08-17T04:59:12.574Z,21.62
2022-08-17T05:01:48.013Z,21.63
2022-08-17T05:04:34.023Z,21.68
2022-08-17T05:07:05.853Z,21.74
2022-08-17T05:09:35.738Z,21.76
2022-08-17T05:12:07.314Z,21.88
2022-08-17T05:14:44.882Z,21.93
2022-08-17T05:17:19.864Z,22.00
2022-08-17T05:19:51.999Z,22.08
2022-08-17T05:22:22.350Z,22.16
2022-08-17T05:24:53.885Z,22.25
2022-08-17T05:27:26.917Z,22.36
2022-08-17T05:30:06.164Z,22.53
2022-08-17T05:32:51.150Z,22.65
2022-08-17T05:35:21.577Z,22.74
2022-08-17T05:37:52.095Z,22.80
2022-08-17T05:40:25.755Z,22.89
2022-08-17T05:43:07.601Z,22.96
2022-08-17T05:45:56.146Z,23.11
2022-08-17T05:48:35.486Z,23.25
2022-08-17T05:51:27.443Z,23.34
2022-08-17T05:54:12.867Z,23.39
2022-08-17T05:57:03.066Z,23.57
2022-08-17T05:59:48.298Z,23.75
2022-08-17T06:02:26.665Z,23.99
2022-08-17T06:05:20.039Z,24.18
2022-08-17T06:07:58.382Z,24.34
2022-08-17T06:10:37.278Z,24.33
2022-08-17T06:13:19.086Z,24.51
2022-08-17T06:16:02.404Z,24.63
2022-08-17T06:18:41.648Z,24.76
2022-08-17T06:21:20.898Z,24.87
2022-08-17T06:24:04.125Z,24.99
2022-08-17T06:26:41.084Z,25.06
2022-08-17T06:29:24.883Z,25.27
2022-08-17T06:31:55.085Z,25.45
2022-08-17T06:34:25.287Z,25.63
2022-08-17T06:37:05.568Z,25.78
2022-08-17T06:39:48.439Z,25.94
2022-08-17T06:42:54.154Z,26.09
2022-08-17T06:45:31.551Z,26.35
2022-08-17T06:48:10.610Z,26.52
2022-08-17T06:50:47.519Z,26.75
2022-08-17T06:53:27.631Z,27.04
2022-08-17T06:56:04.634Z,27.26
2022-08-17T06:58:37.786Z,27.39
2022-08-17T07:01:16.899Z,27.77
2022-08-17T07:03:54.762Z,28.05
2022-08-17T07:06:32.615Z,28.24
2022-08-17T07:09:18.252Z,28.39
2022-08-17T07:11:53.239Z,28.54
2022-08-17T07:14:38.521Z,28.65
2022-08-17T07:17:15.897Z,28.76
2022-08-17T07:19:48.918Z,28.82
2022-08-17T07:22:30.516Z,28.89
2022-08-17T07:25:23.924Z,29.07
2022-08-17T07:28:00.332Z,29.17
2022-08-17T07:30:37.151Z,29.43
2022-08-17T07:33:22.847Z,29.66
2022-08-17T07:35:53.739Z,29.96
2022-08-17T07:38:28.471Z,30.18
2022-08-17T07:41:13.526Z,30.27
2022-08-17T07:43:52.978Z,30.46
2022-08-17T07:46:39.631Z,30.64
2022-08-17T07:49:37.917Z,30.93
2022-08-17T07:52:47.945Z,31.10
2022-08-17T07:55:03.546Z,31.36
2022-08-17T07:57:39.744Z,31.52
2022-08-17T08:00:29.169Z,31.70
2022-08-17T08:03:25.418Z,31.97
2022-08-17T08:06:01.401Z,32.25
2022-08-17T08:08:37.038Z,32.38
2022-08-17T08:11:11.584Z,32.59
2022-08-17T08:13:46.761Z,32.94
2022-08-17T08:16:25.578Z,33.25
2022-08-17T08:18:59.526Z,33.54
2022-08-17T08:21:46.584Z,33.75
2022-08-17T08:24:43.377Z,34.28
2022-08-17T08:27:27.632Z,34.73
2022-08-17T08:30:10.925Z,35.47
2022-08-17T08:33:02.347Z,35.76
2022-08-17T08:35:37.073Z,36.64
2022-08-17T08:38:20.060Z,37.28
2022-08-17T08:41:08.835Z,37.87
2022-08-17T08:43:53.511Z,38.02
2022-08-17T08:46:34.768Z,38.33
2022-08-17T08:50:03.267Z,38.64
2022-08-17T08:53:12.330Z,39.24
2022-08-17T08:55:54.509Z,39.57
2022-08-17T08:58:41.276Z,39.81
2022-08-17T09:01:24.170Z,39.91
2022-08-17T09:04:24.607Z,39.65
2022-08-17T09:07:09.769Z,39.92
2022-08-17T09:09:57.311Z,39.87
2022-08-17T09:12:42.293Z,39.85
2022-08-17T09:15:20.228Z,39.76
2022-08-17T09:18:58.977Z,39.88
2022-08-17T09:21:00.797Z,40.03
2022-08-17T09:23:42.494Z,40.62
2022-08-17T09:26:17.445Z,41.03
2022-08-17T09:28:54.724Z,41.34
2022-08-17T09:31:46.461Z,41.74
2022-08-17T09:34:29.569Z,41.57
2022-08-17T09:37:21.642Z,41.63
2022-08-17T09:40:08.780Z,41.67
2022-08-17T09:42:50.030Z,41.86
2022-08-17T09:45:33.241Z,42.61
2022-08-17T09:48:10.132Z,41.95
2022-08-17T09:51:03.440Z,41.90
2022-08-17T09:53:40.420Z,42.14
2022-08-17T09:56:29.712Z,41.90
2022-08-17T09:59:27.507Z,41.54
2022-08-17T10:02:34.836Z,41.85
2022-08-17T10:05:12.142Z,41.82
2022-08-17T10:07:49.367Z,41.50
2022-08-17T10:10:33.003Z,41.26
2022-08-17T10:16:23.646Z,42.39
2022-08-17T10:19:08.133Z,42.22
2022-08-17T10:22:01.238Z,42.21
2022-08-17T10:25:23.480Z,42.35
2022-08-17T10:28:01.754Z,43.05
2022-08-17T10:30:36.808Z,43.45
2022-08-17T10:33:16.186Z,43.42
2022-08-17T10:35:57.296Z,43.44
2022-08-17T10:38:46.192Z,43.25
2022-08-17T10:41:30.830Z,42.31
2022-08-17T10:44:39.054Z,41.91
2022-08-17T10:47:12.833Z,41.89
2022-08-17T10:49:47.621Z,41.18
2022-08-17T10:52:51.891Z,41.58
2022-08-17T10:55:25.840Z,42.14
2022-08-17T10:58:24.773Z,42.65
2022-08-17T11:01:04.136Z,42.87
2022-08-17T11:03:35.022Z,43.08
2022-08-17T11:06:17.821Z,43.43
2022-08-17T11:09:20.034Z,43.84
2022-08-17T11:12:10.490Z,44.41
2022-08-17T11:15:02.830Z,44.79
2022-08-17T11:18:10.386Z,45.40
2022-08-17T11:21:06.766Z,45.80
2022-08-17T11:24:02.061Z,45.86
2022-08-17T11:26:36.324Z,46.40
2022-08-17T11:29:19.795Z,46.88
2022-08-17T11:32:15.426Z,47.17
2022-08-17T11:34:46.656Z,47.57
2022-08-17T11:37:50.328Z,47.67
2022-08-17T11:41:08.345Z,47.04
2022-08-17T11:44:05.838Z,47.45
2022-08-17T11:47:08.972Z,47.47
2022-08-17T11:50:25.730Z,47.12
2022-08-17T11:52:58.239Z,47.57
2022-08-17T11:56:04.838Z,47.78
2022-08-17T11:58:42.761Z,47.88
2022-08-17T12:01:16.090Z,48.10
2022-08-17T12:03:55.574Z,48.25
2022-08-17T12:06:48.725Z,48.47
2022-08-17T12:09:24.692Z,48.85
2022-08-17T12:12:12.682Z,48.98
2022-08-17T12:15:09.626Z,49.22
2022-08-17T12:17:42.983Z,49.07
2022-08-17T12:20:24.361Z,48.74
2022-08-17T12:23:05.558Z,49.09
2022-08-17T12:25:42.493Z,49.34
2022-08-17T12:28:24.915Z,49.07
2022-08-17T12:30:56.358Z,49.19
2022-08-17T12:33:29.026Z,49.36
2022-08-17T12:36:04.124Z,49.47
2022-08-17T12:38:39.962Z,49.42
2022-08-17T12:41:24.296Z,49.16
2022-08-17T12:44:03.788Z,48.48
2022-08-17T12:46:37.790Z,48.51
2022-08-17T12:49:19.810Z,48.10
2022-08-17T12:51:50.992Z,47.28
2022-08-17T12:54:36.728Z,46.71
2022-08-17T12:57:14.328Z,46.98
2022-08-17T12:59:48.914Z,47.21
2022-08-17T13:02:33.685Z,48.01
2022-08-17T13:05:04.946Z,48.30
2022-08-17T13:07:44.698Z,48.95
2022-08-17T13:10:28.637Z,49.54
2022-08-17T13:13:05.009Z,49.39
2022-08-17T13:15:44.713Z,49.25
2022-08-17T13:18:40.311Z,49.41
2022-08-17T13:21:22.339Z,49.30
2022-08-17T13:24:04.253Z,49.11
2022-08-17T13:26:40.835Z,49.17
2022-08-17T13:29:24.750Z,48.69
2022-08-17T13:32:04.766Z,48.46
2022-08-17T13:34:56.210Z,48.31
2022-08-17T13:37:35.965Z,47.81
2022-08-17T13:40:34.744Z,47.16
2022-08-17T13:43:08.243Z,46.92
2022-08-17T13:45:51.120Z,47.35
2022-08-17T13:48:29.868Z,47.25
2022-08-17T13:51:18.928Z,47.71
2022-08-17T13:54:00.978Z,47.75
2022-08-17T13:56:39.510Z,47.71
2022-08-17T13:59:16.240Z,47.69
2022-08-17T14:01:53.475Z,47.47
2022-08-17T14:04:27.940Z,46.96
2022-08-17T14:07:01.349Z,46.93
2022-08-17T14:09:37.435Z,47.00
2022-08-17T14:12:13.271Z,47.25
2022-08-17T14:14:49.812Z,46.90
2022-08-17T14:17:20.220Z,47.09
2022-08-17T14:19:50.985Z,47.41
2022-08-17T14:22:28.491Z,47.52
2022-08-17T14:25:01.706Z,47.69
2022-08-17T14:27:51.961Z,47.39
2022-08-17T14:30:29.728Z,47.93
2022-08-17T14:33:02.321Z,48.21
2022-08-17T14:35:32.724Z,48.33
2022-08-17T14:38:03.402Z,48.07
2022-08-17T14:40:34.803Z,48.20
2022-08-17T14:43:04.970Z,48.06
2022-08-17T14:45:37.729Z,48.06
2022-08-17T14:48:10.304Z,48.10
2022-08-17T14:50:44.299Z,48.16
2022-08-17T14:53:17.963Z,47.98
2022-08-17T14:55:48.724Z,48.04
2022-08-17T14:58:19.579Z,47.79
2022-08-17T15:00:53.501Z,47.65
2022-08-17T15:03:23.671Z,47.34
2022-08-17T15:05:53.999Z,47.42
2022-08-17T15:08:24.161Z,47.44
2022-08-17T15:10:54.535Z,46.88
2022-08-17T15:13:27.218Z,46.53
2022-08-17T15:16:02.663Z,46.41
2022-08-17T15:18:33.768Z,46.09
2022-08-17T15:21:06.775Z,45.77
2022-08-17T15:23:36.963Z,45.27
2022-08-17T15:26:07.313Z,45.05
2022-08-17T15:28:37.807Z,44.82
2022-08-17T15:31:10.666Z,44.53
2022-08-17T15:33:41.060Z,44.26
2022-08-17T15:36:11.951Z,43.77
2022-08-17T15:38:42.144Z,43.35
2022-08-17T15:41:18.505Z,42.99
2022-08-17T15:43:50.441Z,42.56
2022-08-17T15:46:27.316Z,41.94
2022-08-17T15:48:59.598Z,41.35
2022-08-17T15:51:32.865Z,40.61
2022-08-17T15:54:18.779Z,39.74
2022-08-17T15:56:52.637Z,38.86
2022-08-17T15:59:22.857Z,38.18
2022-08-17T16:03:14.774Z,37.69
2022-08-17T16:04:46.900Z,37.26
2022-08-17T16:07:26.455Z,37.02
2022-08-17T16:09:57.032Z,36.71
2022-08-17T16:12:28.066Z,36.43
2022-08-17T16:14:59.891Z,36.13
2022-08-17T16:17:39.514Z,35.82
2022-08-17T16:20:20.223Z,35.51
2022-08-17T16:22:54.154Z,35.25
2022-08-17T16:25:49.048Z,35.06
2022-08-17T16:28:21.944Z,34.84
2022-08-17T16:30:52.121Z,34.70
2022-08-17T16:33:24.889Z,34.58
2022-08-17T16:35:55.101Z,34.48
2022-08-17T16:38:25.285Z,34.40
2022-08-17T16:40:55.459Z,34.28
2022-08-17T16:43:25.784Z,34.18
2022-08-17T16:45:55.926Z,34.07
2022-08-17T16:48:28.805Z,33.96
2022-08-17T16:51:03.456Z,33.87
2022-08-17T16:53:34.864Z,33.74
2022-08-17T16:56:05.347Z,33.62
2022-08-17T16:58:35.938Z,33.53
2022-08-17T17:01:08.020Z,33.42
2022-08-17T17:03:44.007Z,33.28
2022-08-17T17:06:22.219Z,33.21
2022-08-17T17:08:59.292Z,33.13
2022-08-17T17:11:36.466Z,33.05
2022-08-17T17:14:12.517Z,32.88
2022-08-17T17:16:48.755Z,32.76
2022-08-17T17:19:35.096Z,32.71
2022-08-17T17:22:18.387Z,32.67
2022-08-17T17:25:10.931Z,32.66
2022-08-17T17:27:53.368Z,32.61
2022-08-17T17:30:28.193Z,32.49
2022-08-17T17:33:05.813Z,32.46
2022-08-17T17:35:50.015Z,32.40
2022-08-17T17:38:29.209Z,32.29
2022-08-17T17:41:07.271Z,32.23
2022-08-17T17:43:40.102Z,32.17
2022-08-17T17:46:27.574Z,32.11
2022-08-17T17:48:58.436Z,32.03
2022-08-17T17:52:08.500Z,31.98
2022-08-17T17:54:46.395Z,31.86
2022-08-17T17:57:32.621Z,31.79
2022-08-17T18:00:10.932Z,31.70
2022-08-17T18:03:03.084Z,31.61
2022-08-17T18:05:51.389Z,31.56
2022-08-17T18:08:45.147Z,31.50
2022-08-17T18:12:06.577Z,31.43
2022-08-17T18:14:58.286Z,31.35
2022-08-17T18:17:31.157Z,31.30
2022-08-17T18:20:01.617Z,31.26
2022-08-17T18:22:31.973Z,31.19
2022-08-17T18:25:04.886Z,31.14
2022-08-17T18:27:38.295Z,31.11
2022-08-17T18:30:30.286Z,31.05
2022-08-17T18:33:26.650Z,30.99
2022-08-17T18:35:59.275Z,30.93
2022-08-17T18:38:35.759Z,30.88
2022-08-17T18:41:24.418Z,30.79
2022-08-17T18:44:06.157Z,30.71
2022-08-17T18:46:39.043Z,30.65
2022-08-17T18:49:28.873Z,30.56
2022-08-17T18:52:14.902Z,30.50
2022-08-17T18:55:08.741Z,30.46
2022-08-17T18:57:47.544Z,30.39
2022-08-17T19:00:35.926Z,30.34
2022-08-17T19:03:25.166Z,30.29
2022-08-17T19:05:58.879Z,30.21
2022-08-17T19:08:38.307Z,30.20
2022-08-17T19:11:13.336Z,30.14
2022-08-17T19:13:50.166Z,30.07
2022-08-17T19:16:27.086Z,30.03
2022-08-17T19:19:07.643Z,29.97
2022-08-17T19:21:43.195Z,29.93
2022-08-17T19:24:20.979Z,29.86
2022-08-17T19:26:59.052Z,29.78
2022-08-17T19:29:40.191Z,29.71
2022-08-17T19:32:11.172Z,29.62
2022-08-17T19:34:44.802Z,29.59
2022-08-17T19:37:30.541Z,29.53
2022-08-17T19:40:35.023Z,29.48
2022-08-17T19:43:20.085Z,29.40
2022-08-17T19:46:07.240Z,29.36
2022-08-17T19:48:48.580Z,29.29
2022-08-17T19:51:30.736Z,29.25
2022-08-17T19:54:09.492Z,29.21
2022-08-17T19:56:50.799Z,29.16
2022-08-17T19:59:37.842Z,29.08
2022-08-17T20:02:26.744Z,29.02
2022-08-17T20:05:01.911Z,28.96
2022-08-17T20:07:42.084Z,28.94
2022-08-17T20:10:21.002Z,28.92
2022-08-17T20:12:54.969Z,28.89
2022-08-17T20:15:32.094Z,28.88
2022-08-17T20:18:15.694Z,28.83
2022-08-17T20:20:57.617Z,28.75
2022-08-17T20:23:52.166Z,28.66
2022-08-17T20:26:27.457Z,28.58
2022-08-17T20:29:39.594Z,28.46
2022-08-17T20:32:29.983Z,28.41
2022-08-17T20:35:28.787Z,28.30
2022-08-17T20:38:03.392Z,28.28
2022-08-17T20:40:40.934Z,28.25
2022-08-17T20:43:54.384Z,28.17
2022-08-17T20:46:43.133Z,28.10
2022-08-17T20:49:26.167Z,28.10
2022-08-17T20:52:07.813Z,28.09
2022-08-17T20:54:54.007Z,28.00
2022-08-17T20:57:50.358Z,27.96
2022-08-17T21:00:50.238Z,27.84
2022-08-17T21:03:54.338Z,27.76
2022-08-17T21:06:27.543Z,27.75
2022-08-17T21:09:32.592Z,27.66
2022-08-17T21:12:05.799Z,27.62
2022-08-17T21:15:00.410Z,27.59
2022-08-17T21:17:51.608Z,27.60
2022-08-17T21:20:37.220Z,27.56
2022-08-17T21:23:30.270Z,27.58
2022-08-17T21:26:30.422Z,27.61
2022-08-17T21:29:31.338Z,27.59
2022-08-17T21:32:24.663Z,27.55
2022-08-17T21:35:51.009Z,27.51
2022-08-17T21:38:23.978Z,27.45
2022-08-17T21:40:56.736Z,27.43
2022-08-17T21:43:33.218Z,27.46
2022-08-17T21:46:08.398Z,27.53
2022-08-17T21:48:49.460Z,27.55
2022-08-17T21:51:29.814Z,27.55
2022-08-17T21:54:04.602Z,27.59
2022-08-17T21:56:38.573Z,27.63
2022-08-17T21:59:28.357Z,27.65
2022-08-17T22:02:01.581Z,27.68
2022-08-17T22:04:34.689Z,27.76
2022-08-17T22:07:08.871Z,27.86
2022-08-17T22:09:47.168Z,27.95
2022-08-17T22:12:21.398Z,28.02
2022-08-17T22:15:06.090Z,28.02
2022-08-17T22:17:40.505Z,27.97
2022-08-17T22:20:15.935Z,27.92
2022-08-17T22:23:28.183Z,27.85
2022-08-17T22:26:05.960Z,27.86
2022-08-17T22:28:46.883Z,27.83
2022-08-17T22:31:22.918Z,27.83
2022-08-17T22:33:55.957Z,27.86
2022-08-17T22:36:32.156Z,27.89
2022-08-17T22:39:05.490Z,27.92
2022-08-17T22:41:54.077Z,27.90
2022-08-17T22:44:29.655Z,27.85
2022-08-17T22:47:11.136Z,27.81
2022-08-17T22:49:53.969Z,27.86
2022-08-17T22:52:34.522Z,27.83
2022-08-17T22:55:23.489Z,27.76
2022-08-17T22:58:06.332Z,27.68
2022-08-17T23:00:42.381Z,27.65
2022-08-17T23:03:19.618Z,27.59
2022-08-17T23:06:06.233Z,27.52
2022-08-17T23:08:42.760Z,27.47
2022-08-17T23:11:14.376Z,27.43
2022-08-17T23:13:44.611Z,27.44
2022-08-17T23:16:15.207Z,27.39
2022-08-17T23:18:50.951Z,27.33
2022-08-17T23:21:26.640Z,27.15
2022-08-17T23:23:59.196Z,27.06
2022-08-17T23:26:30.044Z,27.02
2022-08-17T23:29:04.439Z,26.96
2022-08-17T23:31:35.069Z,26.88
2022-08-17T23:34:12.078Z,26.87
2022-08-17T23:36:52.482Z,26.86
2022-08-17T23:39:28.240Z,26.82
2022-08-17T23:42:00.426Z,26.81
2022-08-17T23:44:31.514Z,26.72
2022-08-17T23:47:03.674Z,26.66
2022-08-17T23:49:37.666Z,26.58
2022-08-17T23:52:14.990Z,26.48
2022-08-17T23:54:49.940Z,26.44
2022-08-17T23:57:33.837Z,26.38
